Latest Weather Observations for Palmerville

IDQ60801

Issued at 7:31 am EST Wednesday 1 June 2016 (issued every 30 minutes, with the page automatically refreshed every 10 minutes)

About weather observations | Map of weather stations | Latest weather observations for QLD | Other Formats
Station Details ID: 028004 Name: PALMERVILLE Lat: -16.00 Lon: 144.08 Height: 203.8 m
Data from the previous 72 hours. | See also: Recent months at Palmerville
Date/Time
EST
Temp
°C
App
Temp
°C
Dew
Point
Rel
Hum
%
Delta-T
°C
Wind Press
QNH
hPa
Press
MSL
hPa
Rain
since 9 am
mm
Dir
 
Spd
km/h
Gust
km/h
Spd
kts
Gust
kts
01/07:30am 17.9 20.7 17.9 100 0.0 CALM 0 0 0 0 1016.8 1015.8 0.0
01/07:00am 17.3 19.8 17.3 100 0.0 CALM 0 0 0 0 1016.5 1015.5 0.0
01/06:30am 17.0 19.4 17.0 100 0.0 CALM 0 0 0 0 1016.3 1015.2 0.0
01/06:00am 17.1 18.4 17.1 100 0.0 S 6 7 3 4 1015.9 1014.8 0.0
01/05:30am 17.4 20.0 17.4 100 0.0 CALM 0 0 0 0 1015.3 1014.2 0.0
01/05:00am 17.5 20.1 17.5 100 0.0 CALM 0 0 0 0 1015.3 1014.2 0.0
01/04:30am 17.8 20.5 17.8 100 0.0 CALM 0 0 0 0 1015.2 1014.1 0.0
01/04:00am 18.1 20.6 18.1 100 0.0 SSE 2 6 1 3 1015.2 1014.1 0.0
01/03:30am 18.5 21.5 18.5 100 0.0 CALM 0 0 0 0 1015.2 1014.1 0.0
01/03:00am 18.6 21.6 18.4 99 0.1 CALM 0 0 0 0 1015.4 1014.3 0.0
01/02:30am 19.0 22.2 18.8 99 0.1 CALM 0 0 0 0 1015.5 1014.4 0.0
01/02:00am 19.0 22.1 18.7 98 0.2 CALM 0 0 0 0 1015.7 1014.6 0.0
01/01:30am 19.3 22.4 18.6 96 0.4 CALM 0 0 0 0 1015.9 1014.8 0.0
01/01:00am 19.5 22.5 18.5 94 0.6 CALM 0 0 0 0 1016.4 1015.4 0.0
01/12:30am 20.0 23.2 18.8 93 0.8 CALM 0 0 0 0 1016.6 1015.6 0.0
01/12:00am 20.4 23.5 18.7 90 1.1 CALM 0 0 0 0 1016.4 1015.4 0.0
 
Date/Time
EST
Temp
°C
App
Temp
°C
Dew
Point
Rel
Hum
%
Delta-T
°C
Wind Press
QNH
hPa
Press
MSL
hPa
Rain
since 9 am
mm
Dir
 
Spd
km/h
Gust
km/h
Spd
kts
Gust
kts
31/11:30pm 20.9 23.8 18.1 84 1.8 CALM 0 2 0 1 1016.6 1015.6 0.0
31/11:00pm 21.8 23.6 18.2 80 2.3 E 6 7 3 4 1016.8 1015.8 0.0
31/10:30pm 22.1 23.9 18.3 79 2.4 ENE 6 7 3 4 1016.9 1015.9 0.0
31/10:00pm 22.6 24.4 18.4 77 2.7 ENE 6 7 3 4 1017.0 1016.0 0.0
31/09:30pm 23.0 24.9 18.5 76 2.9 E 6 7 3 4 1017.0 1016.0 0.0
31/09:00pm 22.8 25.4 18.3 76 2.8 E 2 7 1 4 1017.0 1016.0 0.0
31/08:30pm 23.3 26.2 18.2 73 3.2 CALM 0 6 0 3 1016.6 1015.6 0.0
31/08:00pm 23.8 26.0 18.4 72 3.4 E 4 7 2 4 1016.3 1015.2 0.0
31/07:30pm 24.0 26.8 18.0 69 3.8 CALM 0 6 0 3 1016.1 1015.0 0.0
31/07:00pm 24.8 26.3 18.0 66 4.3 E 7 11 4 6 1015.8 1014.7 0.0
31/06:30pm 25.4 26.3 18.3 65 4.5 ENE 11 19 6 10 1015.4 1014.3 0.0
31/06:00pm 25.9 26.3 18.1 62 5.0 ENE 13 20 7 11 1015.3 1014.2 0.0
31/05:30pm 26.5 27.6 18.9 63 4.9 ENE 11 17 6 9 1015.2 1014.1 0.0
31/05:00pm 26.9 28.4 19.0 62 5.1 ENE 9 17 5 9 1015.2 1014.1 0.0
31/04:30pm 26.8 27.0 18.6 60 5.3 NE 15 20 8 11 1015.2 1014.1 0.0
31/04:00pm 28.0 29.0 19.5 60 5.6 E 13 20 7 11 1014.9 1013.8 0.0
31/03:30pm 27.3 27.1 18.6 59 5.6 E 17 26 9 14 1015.1 1014.0 0.0
31/03:00pm 28.3 29.1 19.0 57 6.0 ENE 13 20 7 11 1015.1 1014.0 0.0
31/02:30pm 28.1 27.5 18.8 57 6.0 E 20 32 11 17 1015.3 1014.2 0.0
31/02:00pm 27.4 28.4 19.5 62 5.2 E 13 20 7 11 1015.7 1014.6 0.0
31/01:30pm 26.5 25.9 18.9 63 4.9 ESE 20 32 11 17 1016.2 1015.1 0.0
31/01:00pm 27.4 27.7 19.5 62 5.2 E 17 30 9 16 1016.4 1015.4 0.0
31/12:30pm 28.2 27.9 18.3 55 6.4 ENE 17 26 9 14 1016.6 1015.6 0.0
31/12:00pm 29.1 29.1 18.2 51 7.0 E 15 24 8 13 1016.9 1015.9 0.0
31/11:30am 29.5 29.5 18.9 53 6.9 ENE 17 24 9 13 1017.2 1016.2 0.0
31/11:00am 28.3 28.1 18.4 55 6.4 E 17 28 9 15 1017.6 1016.6 0.0
31/10:30am 28.0 27.1 18.1 55 6.3 E 20 30 11 16 1017.6 1016.6 0.0
31/10:00am 27.5 27.2 18.2 57 6.0 ENE 17 26 9 14 1017.8 1016.8 0.0
31/09:30am 27.2 28.7 19.8 64 4.9 ENE 11 20 6 11 1017.8 1016.8 0.0
31/09:00am 26.3 27.9 19.9 68 4.2 ENE 11 15 6 8 1017.9 1016.9 0.0
31/08:30am 25.2 27.5 19.8 72 3.5 ENE 7 13 4 7 1017.7 1016.7 0.0
31/08:00am 22.8 25.8 20.9 89 1.2 E 6 9 3 5 1017.5 1016.5 0.0
31/07:30am 19.9 23.6 19.9 100 0.0 CALM 0 0 0 0 1017.0 1016.0 0.0
31/07:00am 18.7 21.8 18.7 100 0.0 CALM 0 0 0 0 1017.0 1016.0 0.0
31/06:30am 18.6 20.5 18.6 100 0.0 WNW 6 6 3 3 1016.7 1015.7 0.0
31/06:00am 18.8 22.0 18.8 100 0.0 CALM 0 0 0 0 1016.4 1015.4 0.0
31/05:30am 18.8 22.0 18.8 100 0.0 CALM 0 0 0 0 1016.3 1015.2 0.0
31/05:00am 18.9 22.1 18.9 100 0.0 CALM 0 0 0 0 1016.1 1015.0 0.0
31/04:30am 19.2 22.5 19.2 100 0.0 CALM 0 0 0 0 1015.9 1014.8 0.0
31/04:00am 19.3 22.7 19.3 100 0.0 CALM 0 0 0 0 1015.9 1014.8 0.0
31/03:30am 19.3 22.6 19.0 98 0.2 CALM 0 0 0 0 1016.0 1014.9 0.0
31/03:00am 19.3 22.5 18.8 97 0.3 CALM 0 0 0 0 1016.0 1014.9 0.0
31/02:30am 19.7 23.0 19.2 97 0.3 CALM 0 0 0 0 1016.2 1015.1 0.0
31/02:00am 19.8 23.0 18.8 94 0.6 CALM 0 0 0 0 1016.5 1015.5 0.0
31/01:30am 20.0 23.0 18.5 91 0.9 CALM 0 0 0 0 1016.5 1015.5 0.0
31/01:00am 21.1 24.2 18.7 86 1.5 CALM 0 0 0 0 1016.5 1015.5 0.0
31/12:30am 21.5 23.8 19.4 88 1.3 NE 6 9 3 5 1016.5 1015.5 0.0
31/12:00am 20.9 22.9 18.7 87 1.4 ENE 6 7 3 4 1016.7 1015.7 0.0
 
Date/Time
EST
Temp
°C
App
Temp
°C
Dew
Point
Rel
Hum
%
Delta-T
°C
Wind Press
QNH
hPa
Press
MSL
hPa
Rain
since 9 am
mm
Dir
 
Spd
km/h
Gust
km/h
Spd
kts
Gust
kts
30/11:30pm 21.3 23.7 18.9 86 1.5 E 4 7 2 4 1016.7 1015.7 0.0
30/11:00pm 21.8 24.9 18.6 82 2.0 CALM 0 0 0 0 1016.8 1015.8 0.0
30/10:30pm 22.2 23.8 17.8 76 2.8 SE 6 7 3 4 1016.9 1015.9 0.0
30/10:00pm 22.7 24.3 17.8 74 3.1 ESE 6 7 3 4 1016.6 1015.6 0.0
30/09:30pm 23.5 25.1 18.2 72 3.4 E 7 9 4 5 1016.7 1015.7 0.0
30/09:00pm 24.0 25.6 18.2 70 3.7 ENE 7 9 4 5 1016.8 1015.8 0.0
30/08:30pm 24.7 26.3 17.9 66 4.3 ENE 6 9 3 5 1016.8 1015.8 0.0
30/08:00pm 25.1 26.5 17.8 64 4.6 E 7 11 4 6 1016.5 1015.5 0.0
30/07:30pm 25.8 27.2 17.7 61 5.1 ENE 7 13 4 7 1016.1 1015.0 0.0
30/07:00pm 26.4 27.0 17.7 58 5.5 ENE 11 17 6 9 1015.7 1014.6 0.0
30/06:30pm 26.8 27.6 17.3 56 6.0 NE 9 17 5 9 1015.5 1014.4 0.0
30/06:00pm 27.3 28.1 17.2 54 6.4 NE 9 13 5 7 1015.3 1014.2 0.0
30/05:30pm 28.5 28.1 17.1 50 7.2 ENE 15 26 8 14 1015.0 1013.9 0.0
30/05:00pm 29.9 30.4 17.4 47 8.0 NE 11 17 6 9 1014.5 1013.4 0.0
30/04:30pm 30.4 31.0 16.8 44 8.6 NE 9 15 5 8 1014.3 1013.2 0.0
30/04:00pm 30.6 30.2 16.2 41 9.1 NE 13 26 7 14 1014.1 1013.0 0.0
30/03:30pm 31.1 30.1 16.7 42 9.1 NE 17 26 9 14 1014.1 1013.0 0.0
30/03:00pm 29.7 28.4 15.8 43 8.7 ENE 17 26 9 14 1014.4 1013.3 0.0
30/02:30pm 31.6 31.2 17.1 41 9.3 E 15 22 8 12 1014.6 1013.5 0.0
30/02:00pm 31.6 30.8 17.1 41 9.3 E 17 26 9 14 1014.8 1013.7 0.0
30/01:30pm 30.5 30.1 17.2 44 8.5 E 15 26 8 14 1015.1 1014.0 0.0
30/01:00pm 30.5 29.6 16.9 44 8.6 ENE 17 28 9 15 1015.6 1014.5 0.0
30/12:30pm 30.6 29.9 17.3 45 8.5 ENE 17 30 9 16 1016.0 1014.9 0.0
30/12:00pm 30.2 29.4 18.0 48 7.9 E 19 32 10 17 1016.5 1015.5 0.0
30/11:30am 29.9 29.4 18.7 51 7.3 E 19 28 10 15 1016.9 1015.9 0.0
30/11:00am 29.4 30.4 19.4 55 6.6 E 13 20 7 11 1017.3 1016.3 0.0
30/10:30am 28.5 30.0 20.5 62 5.3 E 13 24 7 13 1017.7 1016.7 0.0
30/10:00am 27.0 27.8 19.9 65 4.7 E 15 20 8 11 1017.9 1016.9 0.0
30/09:30am 26.1 28.2 20.2 70 3.9 E 9 13 5 7 1018.0 1017.0 0.0
30/09:00am 25.0 27.8 20.5 76 3.0 ENE 6 9 3 5 1017.9 1016.9 0.0
30/08:30am 23.4 26.1 20.7 85 1.8 E 7 11 4 6 1017.5 1016.5 0.0
30/08:00am 21.8 26.4 21.8 100 0.0 CALM 0 0 0 0 1017.3 1016.3 0.0
30/07:30am 20.3 24.2 20.3 100 0.0 CALM 0 0 0 0 1017.1 1016.1 0.0
30/07:00am 19.4 22.8 19.4 100 0.0 CALM 0 0 0 0 1016.8 1015.8 0.0
30/06:30am 19.9 23.6 19.9 100 0.0 CALM 0 0 0 0 1016.7 1015.7 0.0
30/06:00am 19.9 23.6 19.9 100 0.0 CALM 0 0 0 0 1016.6 1015.6 0.0
30/05:30am 19.7 23.3 19.7 100 0.0 CALM 0 0 0 0 1016.3 1015.2 0.0
30/05:00am 20.0 23.7 20.0 100 0.0 CALM 0 0 0 0 1016.0 1014.9 0.0
30/04:30am 20.3 24.1 20.1 99 0.1 CALM 0 0 0 0 1016.1 1015.0 0.0
30/04:00am 20.4 24.2 20.1 98 0.2 CALM 0 0 0 0 1015.8 1014.7 0.0
30/03:30am 20.6 24.0 20.1 97 0.3 SW 2 6 1 3 1015.9 1014.8 0.0
30/03:00am 20.9 24.3 20.2 96 0.5 S 2 7 1 4 1016.1 1015.0 0.0
30/02:30am 20.9 24.4 19.6 92 0.8 CALM 0 0 0 0 1016.0 1014.9 0.0
30/02:00am 21.4 23.8 19.7 90 1.1 SSW 6 7 3 4 1016.2 1015.1 0.0
30/01:30am 22.0 24.9 19.9 88 1.4 E 4 7 2 4 1016.0 1014.9 0.0
30/01:00am 22.2 25.1 19.9 87 1.5 E 4 6 2 3 1016.2 1015.1 0.0
30/12:30am 22.6 26.1 19.6 83 1.9 CALM 0 0 0 0 1016.5 1015.5 0.0
30/12:00am 23.1 25.3 19.3 79 2.4 S 6 7 3 4 1016.6 1015.6 0.0
 
Date/Time
EST
Temp
°C
App
Temp
°C
Dew
Point
Rel
Hum
%
Delta-T
°C
Wind Press
QNH
hPa
Press
MSL
hPa
Rain
since 9 am
mm
Dir
 
Spd
km/h
Gust
km/h
Spd
kts
Gust
kts
29/11:30pm 23.7 26.8 19.4 77 2.8 N 2 6 1 3 1016.4 1015.4 0.0
29/11:00pm 24.7 26.6 19.8 74 3.2 NE 9 13 5 7 1016.4 1015.4 0.0
29/10:30pm 24.9 27.2 19.5 72 3.5 E 6 7 3 4 1016.6 1015.6 0.0
29/10:00pm 25.3 27.6 19.4 70 3.8 NNE 6 7 3 4 1016.6 1015.6 0.0
29/09:30pm 25.9 28.0 19.3 67 4.3 ENE 7 11 4 6 1016.6 1015.6 0.0
29/09:00pm 26.5 28.1 19.1 64 4.8 ENE 9 17 5 9 1016.4 1015.4 0.0
29/08:30pm 26.7 28.3 19.1 63 4.9 NE 9 13 5 7 1015.7 1014.6 0.0
29/08:00pm 27.0 28.0 18.6 60 5.4 NE 11 20 6 11 1015.4 1014.3 0.0
29/07:30pm 27.3 28.4 18.0 56 5.9 NE 9 15 5 8 1015.2 1014.1 0.0
29/07:00pm 28.1 28.9 18.2 55 6.4 NE 11 17 6 9 1015.0 1013.9 0.0
29/06:30pm 28.4 29.6 18.2 54 6.6 NE 9 17 5 9 1014.6 1013.5 0.0
29/06:00pm 28.6 29.6 17.8 52 6.9 NE 9 15 5 8 1014.3 1013.2 0.0
29/05:30pm 29.8 30.4 17.6 48 7.8 NNE 11 17 6 9 1013.9 1012.8 0.0
29/05:00pm 30.7 32.1 17.7 45 8.4 NE 7 13 4 7 1013.6 1012.5 0.0
29/04:30pm 31.3 31.9 17.6 44 8.8 NE 11 19 6 10 1013.2 1012.1 0.0
29/04:00pm 31.6 31.8 16.7 40 9.5 ENE 11 17 6 9 1013.3 1012.2 0.0
29/03:30pm 31.8 32.8 18.7 45 8.6 NNE 11 20 6 11 1013.3 1012.2 0.0
29/03:00pm 32.1 32.1 17.2 41 9.6 ENE 13 19 7 10 1013.4 1012.3 0.0
29/02:30pm 32.0 33.1 18.9 45 8.6 NNE 11 19 6 10 1013.7 1012.6 0.0
29/02:00pm 31.6 32.7 17.9 44 8.9 NNE 9 17 5 9 1013.8 1012.7 0.0
29/01:30pm 31.2 32.8 19.2 48 7.9 ESE 9 13 5 7 1014.2 1013.1 0.0
29/01:00pm 31.7 34.7 20.0 50 7.8 NE 4 9 2 5 1014.6 1013.5 0.0
29/12:30pm 29.7 31.8 19.4 54 6.8 SE 7 11 4 6 1015.0 1013.9 0.0
29/12:00pm 30.9 33.8 21.1 56 6.6 ENE 7 13 4 7 1015.4 1014.3 0.0
29/11:30am 28.8 32.1 20.8 62 5.3 NW 4 9 2 5 1015.8 1014.7 0.0
29/11:00am 28.2 31.1 20.7 63 5.0 ENE 6 11 3 6 1016.0 1014.9 0.0
29/10:30am 27.4 30.6 21.2 69 4.1 ESE 6 11 3 6 1016.3 1015.2 0.0
29/10:00am 27.0 29.4 20.8 69 4.1 ENE 9 13 5 7 1016.4 1015.4 0.0
29/09:30am 26.7 29.7 21.9 75 3.2 E 9 13 5 7 1016.6 1015.6 0.0
29/09:00am 26.1 28.9 21.5 76 3.1 E 9 13 5 7 1016.5 1015.5 0.6
29/08:30am 25.1 28.7 22.4 85 1.8 NE 7 11 4 6 1016.2 1015.1 0.6
29/08:00am 23.5 27.4 23.0 97 0.3 ENE 7 11 4 6 1016.0 1014.9 0.6

Other Formats:

Comma delimited format used in spreadsheet applications
http://www.bom.gov.au/fwo/IDQ60801/IDQ60801.94276.axf

JavaScript Object Notation format (JSON) in row-major order
http://www.bom.gov.au/fwo/IDQ60801/IDQ60801.94276.json